Aérodrome :
LOGIN :

S'inscrire | Disclaimer

   EN    FR    IT 

 










Légende :    VFR   VFR Marginal   IFR   IFR Intensif   IFR Très Intensif
Visi : 
Plafond : 
>= 8 km
>= 3000ft
5 à 8 km
1000 à 3000 ft
1500m à 5 km
500 à 1000 ft
800 à 1500m
200 à 500 ft
< 800m
< 200 ft
Symboles :   Orages  Brouillard  Fortes neiges  Fortes précipitations  Vent > 20 kt
SIGMETs :   Divers  Orages  Givrage  Turbulence  Onde Orograph.  Cendres Volcan.






- Altitude de l'aérodrome : 80 ft
- Code IATA : LPL


EGGP - Liverpool John Lennon

DERNIER METAR :
  • 090520Z 05013KT 6000 -RA BKN004 OVC015 12/12 Q1009

METARs EXPIRÉS :
  • 090450Z AUTO 04009KT 9999 -RA BKN002/// OVC009/// 13/12 Q1009 RERA
  • 090420Z AUTO 05008KT 5000 RA BKN001/// OVC030/// 13/13 Q1009 REDZ
  • 090350Z AUTO 04007KT 3200 DZ OVC001/// 13/13 Q1009 REDZ
  • 090320Z AUTO 02005KT 4200 DZ OVC001/// 13/13 Q1008 RERA
  • 090250Z AUTO VRB03KT 3200 DZ BKN001/// OVC004/// 15/14 Q1008

TAF TAF EGGP
Valide du 09 à 06h jusqu'au 10 à 06h UTC


090458Z 0906/1006 04005KT 9999 BKN014
TEMPO 0906/0909 2000 +RADZ BKN001
TEMPO 0909/0924 5000 RADZ BKN008
TEMPO 0912/0918 BKN016
BECMG 0921/0924 SCT018
BECMG 1000/1003 29010KT
PROB30
TEMPO 1003/1006 5000 SHRA BKN014
ATIS : +44 151 907 2000 (option 5 or ext 5150)
Météo : +44 871 750 5150



MET'MAP, la Météo Aéronautique d'un coup d'oeil ! - Copyright ORBIFLY Décembre 2007 - Disclaimer

ORBIFLY MET'MAP TEAM :

Programmation & Développement : Alexandra Zaïnal
Sur une idée originale de : Baudouin d'Aumeries
Assistance à la programmation : Marc-Olivier Méhu
Soutien technique & logistique : Manuel Goepfert

Contact : metmap@orbifly.com




SOURCES & CREDITS :

   NOAA